sensor_id;sensor_type;location;lat;lon;timestamp;P1;durP1;ratioP1;P2;durP2;ratioP2
42704;SDS011;28342;42.594;23.414;2023-04-25T00:02:15;5.53;;;3.63;;
42704;SDS011;28342;42.594;23.414;2023-04-25T00:04:40;4.82;;;3.15;;
42704;SDS011;28342;42.594;23.414;2023-04-25T00:07:07;5.10;;;3.80;;
42704;SDS011;28342;42.594;23.414;2023-04-25T00:09:35;5.15;;;3.63;;
42704;SDS011;28342;42.594;23.414;2023-04-25T00:12:01;5.13;;;3.80;;
42704;SDS011;28342;42.594;23.414;2023-04-25T00:14:26;5.95;;;3.75;;
42704;SDS011;28342;42.594;23.414;2023-04-25T00:16:52;5.68;;;4.10;;
42704;SDS011;28342;42.594;23.414;2023-04-25T00:19:19;10.80;;;4.28;;
42704;SDS011;28342;42.594;23.414;2023-04-25T00:21:44;9.00;;;4.95;;
42704;SDS011;28342;42.594;23.414;2023-04-25T00:24:11;6.88;;;5.03;;
42704;SDS011;28342;42.594;23.414;2023-04-25T00:26:37;6.88;;;4.57;;
42704;SDS011;28342;42.594;23.414;2023-04-25T00:29:03;8.38;;;4.82;;
42704;SDS011;28342;42.594;23.414;2023-04-25T00:31:29;7.57;;;4.88;;
42704;SDS011;28342;42.594;23.414;2023-04-25T00:33:54;8.20;;;4.68;;
42704;SDS011;28342;42.594;23.414;2023-04-25T00:36:20;8.18;;;5.13;;
42704;SDS011;28342;42.594;23.414;2023-04-25T00:38:45;8.15;;;4.45;;
42704;SDS011;28342;42.594;23.414;2023-04-25T00:41:11;7.30;;;5.15;;
42704;SDS011;28342;42.594;23.414;2023-04-25T00:43:37;8.38;;;5.57;;
42704;SDS011;28342;42.594;23.414;2023-04-25T00:46:02;8.40;;;5.97;;
42704;SDS011;28342;42.594;23.414;2023-04-25T00:48:28;12.13;;;6.68;;
42704;SDS011;28342;42.594;23.414;2023-04-25T00:50:54;12.27;;;6.22;;
42704;SDS011;28342;42.594;23.414;2023-04-25T00:53:22;8.68;;;5.88;;
42704;SDS011;28342;42.594;23.414;2023-04-25T00:55:48;10.38;;;6.10;;
42704;SDS011;28342;42.594;23.414;2023-04-25T00:58:16;8.68;;;5.88;;
42704;SDS011;28342;42.594;23.414;2023-04-25T01:00:42;11.77;;;6.20;;
42704;SDS011;28342;42.594;23.414;2023-04-25T01:03:09;7.53;;;5.35;;
42704;SDS011;28342;42.594;23.414;2023-04-25T01:05:35;7.90;;;5.53;;
42704;SDS011;28342;42.594;23.414;2023-04-25T01:08:00;7.25;;;4.68;;
42704;SDS011;28342;42.594;23.414;2023-04-25T01:10:26;5.90;;;3.88;;
42704;SDS011;28342;42.594;23.414;2023-04-25T01:12:52;6.00;;;4.50;;
42704;SDS011;28342;42.594;23.414;2023-04-25T01:15:17;6.65;;;4.28;;
42704;SDS011;28342;42.594;23.414;2023-04-25T01:17:42;7.75;;;4.95;;
42704;SDS011;28342;42.594;23.414;2023-04-25T01:20:09;6.45;;;5.05;;
42704;SDS011;28342;42.594;23.414;2023-04-25T01:22:36;6.45;;;4.65;;
42704;SDS011;28342;42.594;23.414;2023-04-25T01:25:01;7.25;;;4.95;;
42704;SDS011;28342;42.594;23.414;2023-04-25T01:27:27;8.13;;;5.35;;
42704;SDS011;28342;42.594;23.414;2023-04-25T01:29:53;9.55;;;5.85;;
42704;SDS011;28342;42.594;23.414;2023-04-25T01:32:19;9.10;;;6.45;;
42704;SDS011;28342;42.594;23.414;2023-04-25T01:34:46;8.70;;;6.07;;
42704;SDS011;28342;42.594;23.414;2023-04-25T01:37:11;8.63;;;6.03;;
42704;SDS011;28342;42.594;23.414;2023-04-25T01:39:37;12.48;;;6.78;;
42704;SDS011;28342;42.594;23.414;2023-04-25T01:42:03;14.68;;;6.95;;
42704;SDS011;28342;42.594;23.414;2023-04-25T01:44:28;10.02;;;6.82;;
42704;SDS011;28342;42.594;23.414;2023-04-25T01:46:54;11.88;;;6.53;;
42704;SDS011;28342;42.594;23.414;2023-04-25T01:49:19;8.68;;;5.88;;
42704;SDS011;28342;42.594;23.414;2023-04-25T01:51:45;7.07;;;5.55;;
42704;SDS011;28342;42.594;23.414;2023-04-25T01:54:10;10.68;;;6.65;;
42704;SDS011;28342;42.594;23.414;2023-04-25T01:56:37;12.35;;;6.63;;
42704;SDS011;28342;42.594;23.414;2023-04-25T01:59:03;8.60;;;6.10;;
42704;SDS011;28342;42.594;23.414;2023-04-25T02:01:30;11.25;;;7.43;;
42704;SDS011;28342;42.594;23.414;2023-04-25T02:03:56;11.65;;;6.50;;
42704;SDS011;28342;42.594;23.414;2023-04-25T02:06:21;9.45;;;5.95;;
42704;SDS011;28342;42.594;23.414;2023-04-25T02:08:47;11.30;;;6.22;;
42704;SDS011;28342;42.594;23.414;2023-04-25T02:11:12;10.63;;;5.85;;
42704;SDS011;28342;42.594;23.414;2023-04-25T02:13:38;10.55;;;5.95;;
42704;SDS011;28342;42.594;23.414;2023-04-25T02:16:03;8.15;;;5.18;;
42704;SDS011;28342;42.594;23.414;2023-04-25T02:18:29;8.82;;;6.35;;
42704;SDS011;28342;42.594;23.414;2023-04-25T02:20:56;8.05;;;5.63;;
42704;SDS011;28342;42.594;23.414;2023-04-25T02:23:22;9.63;;;5.63;;
42704;SDS011;28342;42.594;23.414;2023-04-25T02:25:48;8.13;;;5.53;;
42704;SDS011;28342;42.594;23.414;2023-04-25T02:28:14;8.88;;;5.93;;
42704;SDS011;28342;42.594;23.414;2023-04-25T02:30:39;9.10;;;5.63;;
42704;SDS011;28342;42.594;23.414;2023-04-25T02:33:04;8.25;;;5.38;;
42704;SDS011;28342;42.594;23.414;2023-04-25T02:35:30;8.93;;;5.82;;
42704;SDS011;28342;42.594;23.414;2023-04-25T02:37:55;10.85;;;6.18;;
42704;SDS011;28342;42.594;23.414;2023-04-25T02:40:21;11.55;;;6.65;;
42704;SDS011;28342;42.594;23.414;2023-04-25T02:42:46;8.88;;;5.95;;
42704;SDS011;28342;42.594;23.414;2023-04-25T02:45:12;9.95;;;6.20;;
42704;SDS011;28342;42.594;23.414;2023-04-25T02:47:37;13.02;;;7.20;;
42704;SDS011;28342;42.594;23.414;2023-04-25T02:50:03;8.70;;;6.00;;
42704;SDS011;28342;42.594;23.414;2023-04-25T02:52:29;10.88;;;6.72;;
42704;SDS011;28342;42.594;23.414;2023-04-25T02:54:54;11.82;;;7.38;;
42704;SDS011;28342;42.594;23.414;2023-04-25T02:57:20;10.32;;;6.30;;
42704;SDS011;28342;42.594;23.414;2023-04-25T02:59:46;9.30;;;6.05;;
42704;SDS011;28342;42.594;23.414;2023-04-25T03:02:11;9.32;;;6.22;;
42704;SDS011;28342;42.594;23.414;2023-04-25T03:04:37;10.65;;;6.45;;
42704;SDS011;28342;42.594;23.414;2023-04-25T03:07:02;11.23;;;7.75;;
42704;SDS011;28342;42.594;23.414;2023-04-25T03:09:29;14.55;;;8.25;;
42704;SDS011;28342;42.594;23.414;2023-04-25T03:11:54;11.30;;;7.25;;
42704;SDS011;28342;42.594;23.414;2023-04-25T03:14:20;10.93;;;7.00;;
42704;SDS011;28342;42.594;23.414;2023-04-25T03:16:45;14.05;;;7.53;;
42704;SDS011;28342;42.594;23.414;2023-04-25T03:19:11;12.02;;;7.20;;
42704;SDS011;28342;42.594;23.414;2023-04-25T03:21:39;10.02;;;6.40;;
42704;SDS011;28342;42.594;23.414;2023-04-25T03:24:07;9.20;;;5.72;;
42704;SDS011;28342;42.594;23.414;2023-04-25T03:26:33;13.55;;;7.95;;
42704;SDS011;28342;42.594;23.414;2023-04-25T03:28:59;12.93;;;8.40;;
42704;SDS011;28342;42.594;23.414;2023-04-25T03:31:24;13.20;;;8.00;;
42704;SDS011;28342;42.594;23.414;2023-04-25T03:33:50;15.38;;;9.43;;
42704;SDS011;28342;42.594;23.414;2023-04-25T03:36:15;15.30;;;8.88;;
42704;SDS011;28342;42.594;23.414;2023-04-25T03:38:40;13.25;;;8.27;;
42704;SDS011;28342;42.594;23.414;2023-04-25T03:41:06;15.57;;;9.25;;
42704;SDS011;28342;42.594;23.414;2023-04-25T03:43:32;16.70;;;9.20;;
42704;SDS011;28342;42.594;23.414;2023-04-25T03:45:58;18.00;;;10.43;;
42704;SDS011;28342;42.594;23.414;2023-04-25T03:48:24;21.90;;;11.18;;
42704;SDS011;28342;42.594;23.414;2023-04-25T03:50:51;20.65;;;11.10;;
42704;SDS011;28342;42.594;23.414;2023-04-25T03:53:17;21.90;;;12.63;;
42704;SDS011;28342;42.594;23.414;2023-04-25T03:55:42;17.85;;;10.75;;
42704;SDS011;28342;42.594;23.414;2023-04-25T03:58:08;19.75;;;10.27;;
42704;SDS011;28342;42.594;23.414;2023-04-25T04:00:34;20.55;;;11.05;;
42704;SDS011;28342;42.594;23.414;2023-04-25T04:03:00;17.83;;;10.52;;
42704;SDS011;28342;42.594;23.414;2023-04-25T04:05:26;17.95;;;10.13;;
42704;SDS011;28342;42.594;23.414;2023-04-25T04:07:52;18.60;;;10.88;;
42704;SDS011;28342;42.594;23.414;2023-04-25T04:10:17;19.83;;;10.35;;
42704;SDS011;28342;42.594;23.414;2023-04-25T04:12:43;15.05;;;9.95;;
42704;SDS011;28342;42.594;23.414;2023-04-25T04:15:09;21.20;;;11.30;;
42704;SDS011;28342;42.594;23.414;2023-04-25T04:17:34;41.38;;;21.92;;
42704;SDS011;28342;42.594;23.414;2023-04-25T04:20:00;21.95;;;13.25;;
42704;SDS011;28342;42.594;23.414;2023-04-25T04:22:26;22.25;;;12.35;;
42704;SDS011;28342;42.594;23.414;2023-04-25T04:24:51;19.67;;;10.70;;
42704;SDS011;28342;42.594;23.414;2023-04-25T04:27:17;20.70;;;11.55;;
42704;SDS011;28342;42.594;23.414;2023-04-25T04:29:43;24.58;;;12.73;;
42704;SDS011;28342;42.594;23.414;2023-04-25T04:32:10;16.00;;;9.73;;
42704;SDS011;28342;42.594;23.414;2023-04-25T04:34:35;14.45;;;9.43;;
42704;SDS011;28342;42.594;23.414;2023-04-25T04:37:01;17.63;;;9.43;;
42704;SDS011;28342;42.594;23.414;2023-04-25T04:39:26;14.75;;;9.38;;
42704;SDS011;28342;42.594;23.414;2023-04-25T04:41:52;12.65;;;8.98;;
42704;SDS011;28342;42.594;23.414;2023-04-25T04:44:18;13.15;;;8.73;;
42704;SDS011;28342;42.594;23.414;2023-04-25T04:46:44;12.02;;;7.78;;
42704;SDS011;28342;42.594;23.414;2023-04-25T04:49:11;13.93;;;8.50;;
42704;SDS011;28342;42.594;23.414;2023-04-25T04:51:38;10.70;;;7.72;;
42704;SDS011;28342;42.594;23.414;2023-04-25T04:54:05;11.52;;;7.68;;
42704;SDS011;28342;42.594;23.414;2023-04-25T04:56:31;13.70;;;9.20;;
42704;SDS011;28342;42.594;23.414;2023-04-25T04:58:57;17.23;;;10.80;;
42704;SDS011;28342;42.594;23.414;2023-04-25T05:01:23;17.58;;;10.52;;
42704;SDS011;28342;42.594;23.414;2023-04-25T05:03:48;16.70;;;10.73;;
42704;SDS011;28342;42.594;23.414;2023-04-25T05:06:14;20.52;;;11.02;;
42704;SDS011;28342;42.594;23.414;2023-04-25T05:08:41;18.75;;;10.65;;
42704;SDS011;28342;42.594;23.414;2023-04-25T05:11:06;21.08;;;11.43;;
42704;SDS011;28342;42.594;23.414;2023-04-25T05:13:32;16.48;;;10.85;;
42704;SDS011;28342;42.594;23.414;2023-04-25T05:15:57;20.35;;;12.38;;
42704;SDS011;28342;42.594;23.414;2023-04-25T05:18:23;22.23;;;11.52;;
42704;SDS011;28342;42.594;23.414;2023-04-25T05:20:48;25.10;;;14.20;;
42704;SDS011;28342;42.594;23.414;2023-04-25T05:23:14;24.30;;;13.25;;
42704;SDS011;28342;42.594;23.414;2023-04-25T05:25:39;25.13;;;13.15;;
42704;SDS011;28342;42.594;23.414;2023-04-25T05:28:04;21.60;;;12.98;;
42704;SDS011;28342;42.594;23.414;2023-04-25T05:30:30;23.33;;;13.98;;
42704;SDS011;28342;42.594;23.414;2023-04-25T05:32:56;24.95;;;13.68;;
42704;SDS011;28342;42.594;23.414;2023-04-25T05:35:21;13.27;;;8.57;;
42704;SDS011;28342;42.594;23.414;2023-04-25T05:37:47;15.18;;;8.95;;
42704;SDS011;28342;42.594;23.414;2023-04-25T05:40:12;16.70;;;10.15;;
42704;SDS011;28342;42.594;23.414;2023-04-25T05:42:38;20.17;;;11.27;;
42704;SDS011;28342;42.594;23.414;2023-04-25T05:45:04;19.90;;;11.50;;
42704;SDS011;28342;42.594;23.414;2023-04-25T05:47:29;21.73;;;11.77;;
42704;SDS011;28342;42.594;23.414;2023-04-25T05:49:55;22.50;;;13.05;;
42704;SDS011;28342;42.594;23.414;2023-04-25T05:52:20;22.00;;;13.05;;
42704;SDS011;28342;42.594;23.414;2023-04-25T05:54:46;22.20;;;13.15;;
42704;SDS011;28342;42.594;23.414;2023-04-25T05:57:24;21.27;;;12.30;;
42704;SDS011;28342;42.594;23.414;2023-04-25T05:59:51;24.35;;;13.07;;
42704;SDS011;28342;42.594;23.414;2023-04-25T06:02:18;27.27;;;15.35;;
42704;SDS011;28342;42.594;23.414;2023-04-25T06:04:44;24.42;;;14.68;;
42704;SDS011;28342;42.594;23.414;2023-04-25T06:07:09;26.35;;;15.48;;
42704;SDS011;28342;42.594;23.414;2023-04-25T06:09:35;28.30;;;14.50;;
42704;SDS011;28342;42.594;23.414;2023-04-25T06:12:00;22.73;;;13.05;;
42704;SDS011;28342;42.594;23.414;2023-04-25T06:14:26;18.98;;;11.23;;
42704;SDS011;28342;42.594;23.414;2023-04-25T06:16:52;22.92;;;12.88;;
42704;SDS011;28342;42.594;23.414;2023-04-25T06:19:17;22.05;;;12.73;;
42704;SDS011;28342;42.594;23.414;2023-04-25T06:21:43;19.42;;;11.70;;
42704;SDS011;28342;42.594;23.414;2023-04-25T06:24:09;20.95;;;11.85;;
42704;SDS011;28342;42.594;23.414;2023-04-25T06:26:35;17.00;;;10.98;;
42704;SDS011;28342;42.594;23.414;2023-04-25T06:29:01;20.70;;;10.90;;
42704;SDS011;28342;42.594;23.414;2023-04-25T06:31:26;19.45;;;10.75;;
42704;SDS011;28342;42.594;23.414;2023-04-25T06:33:54;17.85;;;10.85;;
42704;SDS011;28342;42.594;23.414;2023-04-25T06:36:20;21.08;;;11.77;;
42704;SDS011;28342;42.594;23.414;2023-04-25T06:38:50;18.27;;;12.10;;
42704;SDS011;28342;42.594;23.414;2023-04-25T06:41:16;17.40;;;11.20;;
42704;SDS011;28342;42.594;23.414;2023-04-25T06:43:41;19.58;;;12.35;;
42704;SDS011;28342;42.594;23.414;2023-04-25T06:46:06;19.52;;;12.02;;
42704;SDS011;28342;42.594;23.414;2023-04-25T06:48:32;20.25;;;11.88;;
42704;SDS011;28342;42.594;23.414;2023-04-25T06:50:57;21.05;;;11.70;;
42704;SDS011;28342;42.594;23.414;2023-04-25T06:53:23;21.90;;;12.82;;
42704;SDS011;28342;42.594;23.414;2023-04-25T06:55:49;22.00;;;12.95;;
42704;SDS011;28342;42.594;23.414;2023-04-25T06:58:14;18.30;;;12.25;;
42704;SDS011;28342;42.594;23.414;2023-04-25T07:00:39;17.85;;;11.85;;
42704;SDS011;28342;42.594;23.414;2023-04-25T07:03:05;24.42;;;13.40;;
42704;SDS011;28342;42.594;23.414;2023-04-25T07:05:30;20.33;;;13.60;;
42704;SDS011;28342;42.594;23.414;2023-04-25T07:07:56;20.63;;;12.85;;
42704;SDS011;28342;42.594;23.414;2023-04-25T07:10:21;22.40;;;14.07;;
42704;SDS011;28342;42.594;23.414;2023-04-25T07:12:47;22.00;;;13.77;;
42704;SDS011;28342;42.594;23.414;2023-04-25T07:15:12;21.98;;;13.27;;
42704;SDS011;28342;42.594;23.414;2023-04-25T07:17:38;18.75;;;12.60;;
42704;SDS011;28342;42.594;23.414;2023-04-25T07:20:03;14.63;;;10.40;;
42704;SDS011;28342;42.594;23.414;2023-04-25T07:22:30;18.80;;;12.57;;
42704;SDS011;28342;42.594;23.414;2023-04-25T07:24:56;19.10;;;12.13;;
42704;SDS011;28342;42.594;23.414;2023-04-25T07:27:22;16.48;;;10.57;;
42704;SDS011;28342;42.594;23.414;2023-04-25T07:29:47;14.02;;;9.88;;
42704;SDS011;28342;42.594;23.414;2023-04-25T07:32:13;13.55;;;9.30;;
42704;SDS011;28342;42.594;23.414;2023-04-25T07:34:39;13.88;;;9.60;;
42704;SDS011;28342;42.594;23.414;2023-04-25T07:37:04;13.52;;;9.50;;
42704;SDS011;28342;42.594;23.414;2023-04-25T07:39:30;11.63;;;8.45;;
42704;SDS011;28342;42.594;23.414;2023-04-25T07:41:56;11.15;;;7.57;;
42704;SDS011;28342;42.594;23.414;2023-04-25T07:44:23;11.45;;;8.23;;
42704;SDS011;28342;42.594;23.414;2023-04-25T07:46:49;11.63;;;7.82;;
42704;SDS011;28342;42.594;23.414;2023-04-25T07:49:14;11.38;;;6.88;;
42704;SDS011;28342;42.594;23.414;2023-04-25T07:51:40;11.57;;;7.95;;
42704;SDS011;28342;42.594;23.414;2023-04-25T07:54:06;10.70;;;7.88;;
42704;SDS011;28342;42.594;23.414;2023-04-25T07:56:31;10.10;;;6.95;;
42704;SDS011;28342;42.594;23.414;2023-04-25T07:58:57;9.13;;;6.63;;
42704;SDS011;28342;42.594;23.414;2023-04-25T08:01:23;6.85;;;4.93;;
42704;SDS011;28342;42.594;23.414;2023-04-25T08:03:48;10.48;;;6.10;;
42704;SDS011;28342;42.594;23.414;2023-04-25T08:06:14;10.25;;;5.53;;
42704;SDS011;28342;42.594;23.414;2023-04-25T08:08:40;8.40;;;5.90;;
42704;SDS011;28342;42.594;23.414;2023-04-25T08:11:05;9.50;;;6.45;;
42704;SDS011;28342;42.594;23.414;2023-04-25T08:13:31;7.60;;;6.15;;
42704;SDS011;28342;42.594;23.414;2023-04-25T08:15:56;9.20;;;5.35;;
42704;SDS011;28342;42.594;23.414;2023-04-25T08:18:21;5.95;;;4.70;;
42704;SDS011;28342;42.594;23.414;2023-04-25T08:20:47;5.35;;;4.25;;
42704;SDS011;28342;42.594;23.414;2023-04-25T08:23:12;4.80;;;3.80;;
42704;SDS011;28342;42.594;23.414;2023-04-25T08:25:40;4.65;;;3.85;;
42704;SDS011;28342;42.594;23.414;2023-04-25T08:28:06;3.80;;;3.20;;
42704;SDS011;28342;42.594;23.414;2023-04-25T08:30:31;5.90;;;4.43;;
42704;SDS011;28342;42.594;23.414;2023-04-25T08:32:57;5.40;;;3.85;;
42704;SDS011;28342;42.594;23.414;2023-04-25T08:35:22;5.53;;;3.70;;
42704;SDS011;28342;42.594;23.414;2023-04-25T08:37:48;3.47;;;3.00;;
42704;SDS011;28342;42.594;23.414;2023-04-25T08:40:14;5.00;;;3.75;;
42704;SDS011;28342;42.594;23.414;2023-04-25T08:42:43;4.65;;;4.00;;
42704;SDS011;28342;42.594;23.414;2023-04-25T08:45:10;3.70;;;2.80;;
42704;SDS011;28342;42.594;23.414;2023-04-25T08:47:37;2.72;;;2.42;;
42704;SDS011;28342;42.594;23.414;2023-04-25T08:50:04;3.17;;;2.85;;
42704;SDS011;28342;42.594;23.414;2023-04-25T08:52:32;4.97;;;2.95;;
42704;SDS011;28342;42.594;23.414;2023-04-25T08:55:01;3.95;;;3.20;;
42704;SDS011;28342;42.594;23.414;2023-04-25T08:57:28;5.45;;;3.22;;
42704;SDS011;28342;42.594;23.414;2023-04-25T08:59:55;7.53;;;3.90;;
42704;SDS011;28342;42.594;23.414;2023-04-25T09:02:22;4.40;;;3.20;;
42704;SDS011;28342;42.594;23.414;2023-04-25T09:04:49;3.45;;;3.15;;
42704;SDS011;28342;42.594;23.414;2023-04-25T09:07:15;4.32;;;2.92;;
42704;SDS011;28342;42.594;23.414;2023-04-25T09:09:46;4.00;;;2.55;;
42704;SDS011;28342;42.594;23.414;2023-04-25T09:12:11;3.92;;;2.33;;
42704;SDS011;28342;42.594;23.414;2023-04-25T09:14:37;2.53;;;2.30;;
42704;SDS011;28342;42.594;23.414;2023-04-25T09:17:03;5.10;;;2.85;;
42704;SDS011;28342;42.594;23.414;2023-04-25T09:19:37;3.38;;;2.50;;
42704;SDS011;28342;42.594;23.414;2023-04-25T09:22:05;3.80;;;2.50;;
42704;SDS011;28342;42.594;23.414;2023-04-25T09:24:44;3.40;;;2.80;;
42704;SDS011;28342;42.594;23.414;2023-04-25T09:27:11;3.47;;;2.28;;
42704;SDS011;28342;42.594;23.414;2023-04-25T09:29:42;3.10;;;2.55;;
42704;SDS011;28342;42.594;23.414;2023-04-25T09:34:40;4.30;;;2.67;;
42704;SDS011;28342;42.594;23.414;2023-04-25T09:37:08;4.60;;;2.20;;
42704;SDS011;28342;42.594;23.414;2023-04-25T09:39:36;4.85;;;2.25;;
42704;SDS011;28342;42.594;23.414;2023-04-25T09:42:03;2.97;;;1.90;;
42704;SDS011;28342;42.594;23.414;2023-04-25T09:44:29;3.60;;;2.30;;
42704;SDS011;28342;42.594;23.414;2023-04-25T09:46:55;2.17;;;1.98;;
42704;SDS011;28342;42.594;23.414;2023-04-25T09:49:20;2.83;;;2.28;;
42704;SDS011;28342;42.594;23.414;2023-04-25T09:54:22;3.47;;;2.30;;
42704;SDS011;28342;42.594;23.414;2023-04-25T09:56:48;3.30;;;2.35;;
42704;SDS011;28342;42.594;23.414;2023-04-25T09:59:19;4.75;;;2.30;;
42704;SDS011;28342;42.594;23.414;2023-04-25T10:01:46;4.82;;;2.20;;
42704;SDS011;28342;42.594;23.414;2023-04-25T10:04:13;3.65;;;3.08;;
42704;SDS011;28342;42.594;23.414;2023-04-25T10:06:48;3.53;;;1.98;;
42704;SDS011;28342;42.594;23.414;2023-04-25T10:09:15;6.15;;;2.70;;
42704;SDS011;28342;42.594;23.414;2023-04-25T10:11:46;2.20;;;1.75;;
42704;SDS011;28342;42.594;23.414;2023-04-25T10:14:15;4.90;;;2.20;;
42704;SDS011;28342;42.594;23.414;2023-04-25T10:16:41;3.03;;;1.75;;
42704;SDS011;28342;42.594;23.414;2023-04-25T10:19:07;4.60;;;1.90;;
42704;SDS011;28342;42.594;23.414;2023-04-25T10:21:33;2.25;;;2.05;;
42704;SDS011;28342;42.594;23.414;2023-04-25T10:23:59;2.78;;;1.85;;
42704;SDS011;28342;42.594;23.414;2023-04-25T10:26:25;5.50;;;1.90;;
42704;SDS011;28342;42.594;23.414;2023-04-25T10:28:54;3.50;;;1.83;;
42704;SDS011;28342;42.594;23.414;2023-04-25T10:31:21;1.92;;;1.60;;
42704;SDS011;28342;42.594;23.414;2023-04-25T10:33:47;2.15;;;1.45;;
42704;SDS011;28342;42.594;23.414;2023-04-25T10:36:17;2.13;;;1.60;;
42704;SDS011;28342;42.594;23.414;2023-04-25T10:38:44;2.00;;;1.70;;
42704;SDS011;28342;42.594;23.414;2023-04-25T10:41:11;2.15;;;1.60;;
42704;SDS011;28342;42.594;23.414;2023-04-25T10:43:38;2.33;;;1.40;;
42704;SDS011;28342;42.594;23.414;2023-04-25T10:46:27;1.50;;;1.00;;
42704;SDS011;28342;42.594;23.414;2023-04-25T10:48:56;0.85;;;0.85;;
42704;SDS011;28342;42.594;23.414;2023-04-25T10:51:32;1.25;;;1.15;;
42704;SDS011;28342;42.594;23.414;2023-04-25T10:56:25;1.42;;;1.25;;
42704;SDS011;28342;42.594;23.414;2023-04-25T11:01:40;1.88;;;1.30;;
42704;SDS011;28342;42.594;23.414;2023-04-25T11:04:22;1.90;;;1.00;;
42704;SDS011;28342;42.594;23.414;2023-04-25T11:09:33;3.05;;;1.30;;
42704;SDS011;28342;42.594;23.414;2023-04-25T11:12:00;2.78;;;1.33;;
42704;SDS011;28342;42.594;23.414;2023-04-25T11:14:26;1.70;;;1.40;;
42704;SDS011;28342;42.594;23.414;2023-04-25T11:16:56;4.85;;;1.83;;
42704;SDS011;28342;42.594;23.414;2023-04-25T11:19:23;4.40;;;1.80;;
42704;SDS011;28342;42.594;23.414;2023-04-25T11:21:50;5.65;;;1.70;;
42704;SDS011;28342;42.594;23.414;2023-04-25T11:24:16;3.17;;;1.48;;
42704;SDS011;28342;42.594;23.414;2023-04-25T11:26:42;1.70;;;1.20;;
42704;SDS011;28342;42.594;23.414;2023-04-25T11:29:08;3.08;;;1.48;;
42704;SDS011;28342;42.594;23.414;2023-04-25T11:31:34;3.60;;;1.40;;
42704;SDS011;28342;42.594;23.414;2023-04-25T11:33:59;1.45;;;1.10;;
42704;SDS011;28342;42.594;23.414;2023-04-25T11:36:25;2.45;;;0.93;;
42704;SDS011;28342;42.594;23.414;2023-04-25T11:38:52;1.67;;;1.25;;
42704;SDS011;28342;42.594;23.414;2023-04-25T11:41:18;1.13;;;1.02;;
42704;SDS011;28342;42.594;23.414;2023-04-25T11:43:45;1.17;;;0.70;;
42704;SDS011;28342;42.594;23.414;2023-04-25T11:46:11;1.20;;;1.00;;
42704;SDS011;28342;42.594;23.414;2023-04-25T11:48:40;1.50;;;0.80;;
42704;SDS011;28342;42.594;23.414;2023-04-25T11:51:09;1.13;;;0.90;;
42704;SDS011;28342;42.594;23.414;2023-04-25T11:53:35;1.35;;;0.88;;
42704;SDS011;28342;42.594;23.414;2023-04-25T11:56:01;1.00;;;0.80;;
42704;SDS011;28342;42.594;23.414;2023-04-25T11:58:29;2.10;;;0.95;;
42704;SDS011;28342;42.594;23.414;2023-04-25T12:00:56;2.75;;;1.30;;
42704;SDS011;28342;42.594;23.414;2023-04-25T12:03:23;1.50;;;0.90;;
42704;SDS011;28342;42.594;23.414;2023-04-25T12:05:51;1.20;;;0.95;;
42704;SDS011;28342;42.594;23.414;2023-04-25T12:08:16;4.68;;;1.33;;
42704;SDS011;28342;42.594;23.414;2023-04-25T12:10:42;3.35;;;1.52;;
42704;SDS011;28342;42.594;23.414;2023-04-25T12:13:19;1.95;;;1.58;;
42704;SDS011;28342;42.594;23.414;2023-04-25T12:15:49;2.25;;;1.35;;
42704;SDS011;28342;42.594;23.414;2023-04-25T12:18:18;3.10;;;1.00;;
42704;SDS011;28342;42.594;23.414;2023-04-25T12:20:44;1.45;;;1.33;;
42704;SDS011;28342;42.594;23.414;2023-04-25T12:23:11;1.88;;;1.10;;
42704;SDS011;28342;42.594;23.414;2023-04-25T12:28:14;3.08;;;1.58;;
42704;SDS011;28342;42.594;23.414;2023-04-25T12:33:35;4.93;;;2.70;;
42704;SDS011;28342;42.594;23.414;2023-04-25T12:36:03;4.35;;;2.45;;
42704;SDS011;28342;42.594;23.414;2023-04-25T12:38:40;5.30;;;2.90;;
42704;SDS011;28342;42.594;23.414;2023-04-25T12:41:07;4.32;;;2.70;;
42704;SDS011;28342;42.594;23.414;2023-04-25T12:43:34;2.90;;;1.80;;
42704;SDS011;28342;42.594;23.414;2023-04-25T12:46:00;4.28;;;1.38;;
42704;SDS011;28342;42.594;23.414;2023-04-25T12:48:25;2.38;;;1.30;;
42704;SDS011;28342;42.594;23.414;2023-04-25T12:50:51;1.13;;;1.00;;
42704;SDS011;28342;42.594;23.414;2023-04-25T12:53:17;2.78;;;1.50;;
42704;SDS011;28342;42.594;23.414;2023-04-25T12:55:46;2.67;;;1.08;;
42704;SDS011;28342;42.594;23.414;2023-04-25T12:58:16;1.73;;;1.30;;
42704;SDS011;28342;42.594;23.414;2023-04-25T13:00:43;2.40;;;1.20;;
42704;SDS011;28342;42.594;23.414;2023-04-25T13:03:10;8.18;;;2.22;;
42704;SDS011;28342;42.594;23.414;2023-04-25T13:05:36;4.07;;;1.67;;
42704;SDS011;28342;42.594;23.414;2023-04-25T13:08:02;6.38;;;1.83;;
42704;SDS011;28342;42.594;23.414;2023-04-25T13:10:28;6.63;;;2.22;;
42704;SDS011;28342;42.594;23.414;2023-04-25T13:12:53;6.28;;;2.00;;
42704;SDS011;28342;42.594;23.414;2023-04-25T13:15:19;0.55;;;0.55;;
42704;SDS011;28342;42.594;23.414;2023-04-25T13:17:44;0.82;;;0.60;;
42704;SDS011;28342;42.594;23.414;2023-04-25T13:20:10;1.30;;;0.80;;
42704;SDS011;28342;42.594;23.414;2023-04-25T13:22:37;1.45;;;0.90;;
42704;SDS011;28342;42.594;23.414;2023-04-25T13:25:06;1.40;;;0.60;;
42704;SDS011;28342;42.594;23.414;2023-04-25T13:27:32;1.63;;;0.98;;
42704;SDS011;28342;42.594;23.414;2023-04-25T13:30:03;1.30;;;0.80;;
42704;SDS011;28342;42.594;23.414;2023-04-25T13:32:35;0.77;;;0.73;;
42704;SDS011;28342;42.594;23.414;2023-04-25T13:35:05;3.90;;;1.05;;
42704;SDS011;28342;42.594;23.414;2023-04-25T13:37:35;0.63;;;0.63;;
42704;SDS011;28342;42.594;23.414;2023-04-25T13:40:04;0.80;;;0.80;;
42704;SDS011;28342;42.594;23.414;2023-04-25T13:45:00;1.05;;;0.80;;
42704;SDS011;28342;42.594;23.414;2023-04-25T13:47:26;1.13;;;0.70;;
42704;SDS011;28342;42.594;23.414;2023-04-25T13:49:51;1.45;;;0.88;;
42704;SDS011;28342;42.594;23.414;2023-04-25T13:52:17;1.05;;;0.88;;
42704;SDS011;28342;42.594;23.414;2023-04-25T13:54:43;1.80;;;1.10;;
42704;SDS011;28342;42.594;23.414;2023-04-25T13:57:08;2.00;;;0.80;;
42704;SDS011;28342;42.594;23.414;2023-04-25T13:59:36;1.55;;;1.08;;
42704;SDS011;28342;42.594;23.414;2023-04-25T14:02:01;1.00;;;0.90;;
42704;SDS011;28342;42.594;23.414;2023-04-25T14:04:27;1.55;;;1.00;;
42704;SDS011;28342;42.594;23.414;2023-04-25T14:06:52;2.33;;;1.27;;
42704;SDS011;28342;42.594;23.414;2023-04-25T14:09:18;1.77;;;1.20;;
42704;SDS011;28342;42.594;23.414;2023-04-25T14:11:45;1.30;;;1.00;;
42704;SDS011;28342;42.594;23.414;2023-04-25T14:14:11;2.83;;;1.02;;
42704;SDS011;28342;42.594;23.414;2023-04-25T14:16:38;1.65;;;1.30;;
42704;SDS011;28342;42.594;23.414;2023-04-25T14:19:03;1.30;;;0.90;;
42704;SDS011;28342;42.594;23.414;2023-04-25T14:21:29;2.53;;;0.90;;
42704;SDS011;28342;42.594;23.414;2023-04-25T14:23:57;2.42;;;0.93;;
42704;SDS011;28342;42.594;23.414;2023-04-25T14:26:22;1.08;;;0.90;;
42704;SDS011;28342;42.594;23.414;2023-04-25T14:28:48;1.23;;;0.90;;
42704;SDS011;28342;42.594;23.414;2023-04-25T14:31:13;1.08;;;0.88;;
42704;SDS011;28342;42.594;23.414;2023-04-25T14:33:38;1.70;;;1.00;;
42704;SDS011;28342;42.594;23.414;2023-04-25T14:36:07;1.02;;;0.80;;
42704;SDS011;28342;42.594;23.414;2023-04-25T14:38:32;1.20;;;0.90;;
42704;SDS011;28342;42.594;23.414;2023-04-25T14:40:58;2.50;;;1.38;;
42704;SDS011;28342;42.594;23.414;2023-04-25T14:43:23;3.95;;;1.50;;